Bookmark and Share
Track history (hours):
 

Zou

Last reported at 2012-Jul-23 18:33 UTC. Time now 2014-Apr-19 09:28 UTC.
Position N 09°27' W 013°44'.
Warning: this ship's position is years out of date!

Length 30 m.

Type: Other ship. MMSI: 610000004.

NotesDate/timePositionNaut miles runAvg speedWind from/ knotsBaromVisibWave heightAir tempDewpointWater temp
2012-Jul-23 18:33N 09°27' W 013°44'4 2.1
2012-Jul-23 16:32N 09°31' W 013°43'0 0.0
2012-Jul-23 15:32N 09°31' W 013°43'0 0.0
2012-Jul-23 14:32N 09°31' W 013°43'0 0.0
2012-Jul-23 13:32N 09°31' W 013°43'0 0.0
2012-Jul-23 12:32N 09°31' W 013°43'0 0.0
2012-Jul-23 11:29N 09°31' W 013°43'0 0.0
2012-Jul-23 10:29N 09°31' W 013°43'0 0.0
2012-Jul-23 09:32N 09°31' W 013°43'0 0.0
2012-Jul-23 08:32N 09°31' W 013°43'0 0.0
2012-Jul-23 07:32N 09°31' W 013°43'0 0.0
2012-Jul-23 06:32N 09°31' W 013°43'0 0.0
2012-Jul-23 05:32N 09°31' W 013°43'0 0.0
2012-Jul-23 04:35N 09°31' W 013°43'0 0.0
2012-Jul-23 03:32N 09°31' W 013°43'0 0.0
2012-Jul-23 02:32N 09°31' W 013°43'0 0.0
2012-Jul-23 01:32N 09°31' W 013°43'0 0.0
2012-Jul-23 00:32N 09°31' W 013°43'0 0.0
2012-Jul-22 23:32N 09°31' W 013°43'0 0.0
2012-Jul-22 22:32N 09°31' W 013°43'0 0.0
2012-Jul-22 21:32N 09°31' W 013°43'0 0.0
2012-Jul-22 20:32N 09°31' W 013°43'0 0.0
2012-Jul-22 19:32N 09°31' W 013°43'0 0.0
2012-Jul-22 18:32N 09°31' W 013°43'1 0.5
2012-Jul-22 17:31N 09°31' W 013°43'1 0.5
2012-Jul-22 16:30N 09°31' W 013°43'0 0.0
2012-Jul-22 15:30N 09°31' W 013°43'0 0.0
2012-Jul-22 14:33N 09°31' W 013°43'0 0.0
2012-Jul-22 13:33N 09°31' W 013°43'0 0.0
2012-Jul-22 12:30N 09°31' W 013°43'0 0.0
2012-Jul-22 11:33N 09°31' W 013°43'0 0.0
2012-Jul-22 10:33N 09°31' W 013°43'0 0.0
2012-Jul-22 09:30N 09°31' W 013°43'0 0.0
2012-Jul-22 08:30N 09°31' W 013°43'0 0.0
2012-Jul-22 07:30N 09°31' W 013°43'0 0.0
2012-Jul-22 06:30N 09°31' W 013°43'0 0.0
2012-Jul-22 05:30N 09°31' W 013°43'0 0.0
2012-Jul-22 04:36N 09°31' W 013°43'0 0.0
2012-Jul-22 03:30N 09°31' W 013°43'0 0.0
2012-Jul-22 02:30N 09°31' W 013°43'0 0.0
2012-Jul-22 01:30N 09°31' W 013°43'0 0.0
2012-Jul-22 00:30N 09°31' W 013°43'0 0.0
2012-Jul-21 23:33N 09°31' W 013°43'0 0.0
2012-Jul-21 22:33N 09°31' W 013°43'0 0.0
2012-Jul-21 21:30N 09°31' W 013°43'0 0.0
2012-Jul-21 20:33N 09°31' W 013°43'0 0.0
2012-Jul-21 19:24N 09°31' W 013°43'0 0.0
2012-Jul-21 18:33N 09°31' W 013°43'0 0.0
2012-Jul-21 17:30N 09°31' W 013°43'0 0.0
2012-Jul-21 16:24N 09°31' W 013°43'0 0.1
2012-Jul-21 15:28N 09°31' W 013°43'5 5.7
2012-Jul-21 14:33N 09°26' W 013°44'1 0.7
2012-Jul-21 13:33N 09°26' W 013°43'1 0.9
2012-Jul-21 12:33N 09°27' W 013°43'  
2012-Jul-15 18:32N 27°49' W 015°21'1313.6
2012-Jul-15 17:33N 28°03' W 015°20'7 1.8
2012-Jul-15 13:26N 28°09' W 015°25'0 0.0
2012-Jul-15 12:32N 28°09' W 015°25'0 0.0
2012-Jul-15 11:26N 28°09' W 015°25'0 0.0
2012-Jul-15 10:35N 28°09' W 015°25'0 0.0
2012-Jul-15 07:23N 28°09' W 015°25'0 0.0
2012-Jul-15 06:32N 28°09' W 015°25'0 0.0
2012-Jul-15 05:32N 28°09' W 015°25'2 0.1
2012-Jul-14 07:33N 28°08' W 015°23'  

Dump ship's entire track history

sailing weather and tide predictions

Zou — TYAA4 — position and weather